Wetterdaten: Woche 13.11.06 - 19.11.06 (KW46)
Datum Zeit Temperatur Luftfeuchte Luftdruck Niederschlag Windrichtung Wind
13.11.2006 00:00 4,2 C 69 % 1021 hPa 0,0 l/m W 10,2 km/h (2 Bft)
13.11.2006 01:00 4,0 C 71 % 1021 hPa 0,0 l/m S-SW 6,7 km/h (2 Bft)
13.11.2006 02:00 3,5 C 79 % 1020 hPa 0,0 l/m S-SW 4,3 km/h (1 Bft)
13.11.2006 03:00 3,6 C 78 % 1020 hPa 0,0 l/m W-SW 6,0 km/h (2 Bft)
13.11.2006 04:00 3,8 C 79 % 1020 hPa 0,0 l/m S-SW 6,1 km/h (2 Bft)
13.11.2006 05:00 3,8 C 83 % 1020 hPa 0,0 l/m S-SW 7,0 km/h (2 Bft)
13.11.2006 06:00 4,1 C 85 % 1020 hPa 0,0 l/m S-SW 9,6 km/h (2 Bft)
13.11.2006 07:00 4,4 C 84 % 1019 hPa 0,0 l/m SW 11,7 km/h (2 Bft)
13.11.2006 08:00 4,7 C 82 % 1019 hPa 0,0 l/m SW 12,3 km/h (3 Bft)
13.11.2006 09:00 5,4 C 80 % 1019 hPa 0,0 l/m SW 13,8 km/h (3 Bft)
13.11.2006 10:00 6,3 C 77 % 1019 hPa 0,0 l/m SW 14,3 km/h (3 Bft)
13.11.2006 11:00 7,1 C 75 % 1018 hPa 0,0 l/m S-SW 16,5 km/h (3 Bft)
13.11.2006 12:00 7,8 C 70 % 1018 hPa 0,0 l/m SW 16,5 km/h (3 Bft)
13.11.2006 13:00 8,7 C 66 % 1017 hPa 0,0 l/m W-SW 17,2 km/h (3 Bft)
13.11.2006 14:00 8,8 C 64 % 1016 hPa 0,0 l/m W-SW 16,7 km/h (3 Bft)
13.11.2006 15:00 8,6 C 67 % 1016 hPa 0,0 l/m W-SW 19,0 km/h (3 Bft)
13.11.2006 16:00 8,5 C 73 % 1016 hPa 0,0 l/m W-SW 17,0 km/h (3 Bft)
13.11.2006 17:00 8,5 C 73 % 1016 hPa 0,0 l/m W-SW 20,3 km/h (4 Bft)
13.11.2006 18:00 8,3 C 76 % 1016 hPa 0,0 l/m SW 18,7 km/h (3 Bft)
13.11.2006 19:00 8,2 C 78 % 1017 hPa 0,0 l/m W-SW 14,8 km/h (3 Bft)
13.11.2006 20:00 8,5 C 78 % 1017 hPa 0,0 l/m SW 12,6 km/h (3 Bft)
13.11.2006 21:00 8,8 C 81 % 1017 hPa 0,0 l/m SW 13,0 km/h (3 Bft)
13.11.2006 22:00 8,9 C 84 % 1017 hPa 0,0 l/m SW 16,1 km/h (3 Bft)
13.11.2006 23:00 8,9 C 84 % 1018 hPa 0,0 l/m SW 16,5 km/h (3 Bft)
14.11.2006 00:00 9,2 C 83 % 1018 hPa 0,0 l/m SW 15,8 km/h (3 Bft)
14.11.2006 01:00 9,5 C 83 % 1017 hPa 0,0 l/m SW 15,7 km/h (3 Bft)
14.11.2006 02:00 9,7 C 86 % 1017 hPa 0,0 l/m W-SW 17,2 km/h (3 Bft)
14.11.2006 03:00 9,9 C 88 % 1017 hPa 0,0 l/m SW 14,6 km/h (3 Bft)
14.11.2006 04:00 9,7 C 90 % 1017 hPa 0,0 l/m SW 15,2 km/h (3 Bft)
14.11.2006 05:00 9,6 C 95 % 1017 hPa 0,0 l/m SW 16,6 km/h (3 Bft)
14.11.2006 06:00 9,7 C 97 % 1017 hPa 0,0 l/m SW 16,1 km/h (3 Bft)
14.11.2006 07:00 9,5 C 99 % 1017 hPa 0,0 l/m SW 14,2 km/h (3 Bft)
14.11.2006 08:00 9,6 C 100 % 1018 hPa 0,0 l/m SW 13,4 km/h (3 Bft)
14.11.2006 09:00 9,7 C 100 % 1018 hPa 0,0 l/m S-SW 13,3 km/h (3 Bft)
14.11.2006 10:00 10,1 C 100 % 1018 hPa 0,0 l/m S-SW 13,4 km/h (3 Bft)
14.11.2006 11:00 10,5 C 100 % 1018 hPa 0,0 l/m S-SW 13,7 km/h (3 Bft)
14.11.2006 12:00 11,3 C 96 % 1018 hPa 0,0 l/m SW 14,8 km/h (3 Bft)
14.11.2006 13:00 11,8 C 91 % 1018 hPa 0,0 l/m S-SW 13,9 km/h (3 Bft)
14.11.2006 14:00 12,1 C 91 % 1018 hPa 0,0 l/m S-SW 13,2 km/h (3 Bft)
14.11.2006 15:00 11,8 C 96 % 1018 hPa 0,0 l/m S-SW 10,9 km/h (2 Bft)
14.11.2006 16:00 11,1 C 99 % 1018 hPa 0,0 l/m S 9,2 km/h (2 Bft)
14.11.2006 17:00 10,6 C 100 % 1018 hPa 0,0 l/m S-SW 8,5 km/h (2 Bft)
14.11.2006 18:00 10,3 C 100 % 1019 hPa 0,0 l/m S-SW 6,8 km/h (2 Bft)
14.11.2006 19:00 9,9 C 100 % 1019 hPa 0,0 l/m S-SW 3,1 km/h (1 Bft)
14.11.2006 20:00 8,9 C 100 % 1019 hPa 0,0 l/m N 0,0 km/h (0 Bft)
14.11.2006 21:00 8,6 C 100 % 1019 hPa 0,0 l/m SO 0,3 km/h (0 Bft)
14.11.2006 22:00 9,5 C 100 % 1019 hPa 0,0 l/m S-SW 6,1 km/h (2 Bft)
14.11.2006 23:00 9,3 C 100 % 1020 hPa 0,0 l/m S-SW 7,8 km/h (2 Bft)
15.11.2006 00:00 9,1 C 100 % 1020 hPa 0,0 l/m S 2,4 km/h (1 Bft)
15.11.2006 01:00 8,7 C 100 % 1020 hPa 0,0 l/m S-SW 1,4 km/h (1 Bft)
15.11.2006 02:00 8,0 C 100 % 1020 hPa 0,0 l/m S-SW 3,0 km/h (1 Bft)
15.11.2006 03:00 7,1 C 100 % 1020 hPa 0,0 l/m N 0,1 km/h (0 Bft)
15.11.2006 04:00 7,3 C 100 % 1020 hPa 0,0 l/m N 0,2 km/h (0 Bft)
15.11.2006 05:00 7,2 C 100 % 1020 hPa 0,0 l/m N 0,0 km/h (0 Bft)
15.11.2006 06:00 6,4 C 100 % 1020 hPa 0,0 l/m N 0,0 km/h (0 Bft)
15.11.2006 07:00 5,9 C 100 % 1020 hPa 0,0 l/m N 0,0 km/h (0 Bft)
15.11.2006 08:00 5,6 C 100 % 1020 hPa 0,0 l/m N 0,0 km/h (0 Bft)
15.11.2006 09:00 7,2 C 100 % 1020 hPa 0,0 l/m N 0,0 km/h (0 Bft)
15.11.2006 10:00 8,8 C 100 % 1020 hPa 0,0 l/m N 0,0 km/h (0 Bft)
15.11.2006 11:00 9,7 C 100 % 1020 hPa 0,0 l/m N 0,0 km/h (0 Bft)
15.11.2006 12:00 12,8 C 91 % 1019 hPa 0,0 l/m O 0,2 km/h (0 Bft)
15.11.2006 13:00 16,0 C 66 % 1018 hPa 0,0 l/m S-SO 2,5 km/h (1 Bft)
15.11.2006 14:00 17,2 C 62 % 1018 hPa 0,0 l/m S 1,1 km/h (1 Bft)
15.11.2006 15:00 16,1 C 67 % 1017 hPa 0,0 l/m N 0,0 km/h (0 Bft)
15.11.2006 16:00 13,4 C 80 % 1017 hPa 0,0 l/m W-NW 1,9 km/h (1 Bft)
15.11.2006 17:00 10,9 C 89 % 1017 hPa 0,0 l/m N 0,0 km/h (0 Bft)
15.11.2006 18:00 8,8 C 94 % 1017 hPa 0,0 l/m N 0,0 km/h (0 Bft)
15.11.2006 19:00 7,4 C 97 % 1016 hPa 0,0 l/m N 0,0 km/h (0 Bft)
15.11.2006 20:00 6,5 C 100 % 1016 hPa 0,0 l/m N 0,0 km/h (0 Bft)
15.11.2006 21:00 5,6 C 100 % 1016 hPa 0,0 l/m N 0,0 km/h (0 Bft)
15.11.2006 22:00 4,7 C 100 % 1015 hPa 0,0 l/m W-NW 0,7 km/h (0 Bft)
15.11.2006 23:00 3,9 C 100 % 1015 hPa 0,0 l/m N 0,0 km/h (0 Bft)
16.11.2006 00:00 2,6 C 100 % 1015 hPa 0,0 l/m N 0,0 km/h (0 Bft)
16.11.2006 01:00 2,1 C 100 % 1015 hPa 0,0 l/m N 0,0 km/h (0 Bft)
16.11.2006 02:00 1,7 C 100 % 1015 hPa 0,0 l/m O 0,4 km/h (0 Bft)
16.11.2006 03:00 1,4 C 100 % 1015 hPa 0,0 l/m N 0,0 km/h (0 Bft)
16.11.2006 04:00 0,9 C 100 % 1015 hPa 0,0 l/m N 0,0 km/h (0 Bft)
16.11.2006 05:00 0,6 C 100 % 1014 hPa 0,0 l/m N 0,0 km/h (0 Bft)
16.11.2006 06:00 0,6 C 100 % 1014 hPa 0,0 l/m N 0,0 km/h (0 Bft)
16.11.2006 07:00 0,6 C 100 % 1014 hPa 0,0 l/m N 0,0 km/h (0 Bft)
16.11.2006 08:00 1,4 C 100 % 1014 hPa 0,0 l/m N 0,0 km/h (0 Bft)
16.11.2006 09:00 3,7 C 100 % 1014 hPa 0,0 l/m N 0,0 km/h (0 Bft)
16.11.2006 10:00 7,3 C 100 % 1014 hPa 0,0 l/m N 0,0 km/h (0 Bft)
16.11.2006 11:00 10,0 C 94 % 1014 hPa 0,0 l/m W-SW 0,1 km/h (0 Bft)
16.11.2006 12:00 13,7 C 69 % 1013 hPa 0,0 l/m O 1,1 km/h (0 Bft)
16.11.2006 13:00 16,1 C 57 % 1013 hPa 0,0 l/m O 1,3 km/h (1 Bft)
16.11.2006 14:00 17,4 C 51 % 1012 hPa 0,0 l/m S-SW 0,5 km/h (0 Bft)
16.11.2006 15:00 15,6 C 56 % 1012 hPa 0,0 l/m S 0,9 km/h (0 Bft)
16.11.2006 16:00 12,2 C 70 % 1011 hPa 0,0 l/m N 0,0 km/h (0 Bft)
16.11.2006 17:00 9,2 C 80 % 1011 hPa 0,0 l/m N 0,0 km/h (0 Bft)
16.11.2006 18:00 7,6 C 88 % 1012 hPa 0,0 l/m N 0,0 km/h (0 Bft)
16.11.2006 19:00 6,7 C 96 % 1012 hPa 0,0 l/m N 0,0 km/h (0 Bft)
16.11.2006 20:00 7,2 C 100 % 1012 hPa 0,0 l/m W 1,2 km/h (1 Bft)
16.11.2006 21:00 7,6 C 96 % 1012 hPa 0,0 l/m W-NW 2,5 km/h (1 Bft)
16.11.2006 22:00 7,5 C 91 % 1012 hPa 0,0 l/m N 0,0 km/h (0 Bft)
16.11.2006 23:00 6,9 C 94 % 1012 hPa 0,0 l/m NW 0,5 km/h (0 Bft)
17.11.2006 00:00 7,2 C 98 % 1013 hPa 0,0 l/m NW 2,0 km/h (1 Bft)
17.11.2006 01:00 7,6 C 99 % 1012 hPa 0,0 l/m NW 0,3 km/h (0 Bft)
17.11.2006 02:00 7,5 C 99 % 1012 hPa 0,0 l/m N 0,0 km/h (0 Bft)
17.11.2006 03:00 7,4 C 100 % 1012 hPa 0,0 l/m W 0,2 km/h (0 Bft)
17.11.2006 04:00 7,4 C 100 % 1012 hPa 0,0 l/m N 0,0 km/h (0 Bft)
17.11.2006 05:00 7,5 C 99 % 1012 hPa 0,0 l/m N 0,0 km/h (0 Bft)
17.11.2006 06:00 7,6 C 100 % 1012 hPa 0,0 l/m N 0,0 km/h (0 Bft)
17.11.2006 07:00 7,8 C 100 % 1012 hPa 0,0 l/m N 0,0 km/h (0 Bft)
17.11.2006 08:00 8,2 C 100 % 1013 hPa 0,0 l/m N 0,0 km/h (0 Bft)
17.11.2006 09:00 8,9 C 100 % 1013 hPa 0,0 l/m W 1,0 km/h (0 Bft)
17.11.2006 10:00 9,6 C 92 % 1014 hPa 1,0 l/m NW 8,2 km/h (2 Bft)
17.11.2006 11:00 10,3 C 89 % 1015 hPa 0,0 l/m NW 6,4 km/h (2 Bft)
17.11.2006 12:00 11,8 C 80 % 1015 hPa 0,0 l/m NW 0,8 km/h (0 Bft)
17.11.2006 13:00 12,5 C 75 % 1015 hPa 0,0 l/m NW 1,0 km/h (0 Bft)
17.11.2006 14:00 12,7 C 75 % 1015 hPa 0,0 l/m O-NO 0,5 km/h (0 Bft)
17.11.2006 15:00 12,5 C 78 % 1015 hPa 0,0 l/m N 0,0 km/h (0 Bft)
17.11.2006 16:00 11,8 C 82 % 1015 hPa 0,0 l/m N 0,0 km/h (0 Bft)
17.11.2006 17:00 10,7 C 87 % 1015 hPa 0,0 l/m NW 0,9 km/h (0 Bft)
17.11.2006 18:00 10,2 C 89 % 1015 hPa 0,0 l/m N 0,0 km/h (0 Bft)
17.11.2006 19:00 9,8 C 93 % 1015 hPa 0,0 l/m N 0,0 km/h (0 Bft)
17.11.2006 20:00 9,6 C 94 % 1014 hPa 0,0 l/m N-NW 2,3 km/h (1 Bft)
17.11.2006 21:00 9,7 C 88 % 1014 hPa 0,0 l/m W-NW 1,2 km/h (1 Bft)
17.11.2006 22:00 9,5 C 89 % 1014 hPa 0,0 l/m NW 4,7 km/h (1 Bft)
17.11.2006 23:00 9,4 C 91 % 1014 hPa 0,0 l/m NW 6,8 km/h (2 Bft)
18.11.2006 00:00 8,8 C 92 % 1014 hPa 0,0 l/m W-NW 1,7 km/h (1 Bft)
18.11.2006 01:00 8,2 C 95 % 1014 hPa 0,0 l/m W 0,2 km/h (0 Bft)
18.11.2006 02:00 8,1 C 98 % 1014 hPa 0,0 l/m N 0,0 km/h (0 Bft)
18.11.2006 03:00 8,1 C 99 % 1014 hPa 0,0 l/m W 2,7 km/h (1 Bft)
18.11.2006 04:00 8,1 C 100 % 1015 hPa 0,0 l/m W 5,4 km/h (1 Bft)
18.11.2006 05:00 7,8 C 100 % 1016 hPa 0,0 l/m W-NW 1,3 km/h (1 Bft)
18.11.2006 06:00 7,3 C 100 % 1016 hPa 0,0 l/m S 0,4 km/h (0 Bft)
18.11.2006 07:00 7,3 C 100 % 1017 hPa 0,0 l/m N 0,0 km/h (0 Bft)
18.11.2006 08:00 7,6 C 100 % 1018 hPa 0,0 l/m S-SO 2,9 km/h (1 Bft)
18.11.2006 09:00 8,2 C 100 % 1019 hPa 0,0 l/m S-SO 4,3 km/h (1 Bft)
18.11.2006 10:00 8,8 C 100 % 1019 hPa 0,0 l/m S-SO 4,2 km/h (1 Bft)
18.11.2006 11:00 9,5 C 100 % 1019 hPa 0,0 l/m S 3,3 km/h (1 Bft)
18.11.2006 12:00 10,3 C 100 % 1019 hPa 0,0 l/m S 5,8 km/h (2 Bft)
18.11.2006 13:00 10,6 C 100 % 1020 hPa 0,0 l/m S-SO 2,1 km/h (1 Bft)
18.11.2006 14:00 11,7 C 90 % 1020 hPa 0,0 l/m W-SW 3,6 km/h (1 Bft)
18.11.2006 15:00 11,6 C 82 % 1021 hPa 0,0 l/m S-SO 4,8 km/h (1 Bft)
18.11.2006 16:00 10,7 C 88 % 1021 hPa 0,0 l/m S-SW 2,8 km/h (1 Bft)
18.11.2006 17:00 8,7 C 93 % 1022 hPa 0,0 l/m S 0,2 km/h (0 Bft)
18.11.2006 18:00 7,3 C 98 % 1022 hPa 0,0 l/m N 0,0 km/h (0 Bft)
18.11.2006 19:00 6,0 C 100 % 1022 hPa 0,0 l/m N 0,0 km/h (0 Bft)
18.11.2006 20:00 5,2 C 100 % 1023 hPa 0,0 l/m N 0,0 km/h (0 Bft)
18.11.2006 21:00 4,6 C 100 % 1023 hPa 0,0 l/m N 0,0 km/h (0 Bft)
18.11.2006 22:00 4,1 C 100 % 1023 hPa 0,0 l/m N 0,0 km/h (0 Bft)
18.11.2006 23:00 3,6 C 100 % 1023 hPa 0,0 l/m N 0,0 km/h (0 Bft)
19.11.2006 00:00 3,0 C 100 % 1023 hPa 0,0 l/m N 0,0 km/h (0 Bft)
19.11.2006 01:00 2,4 C 100 % 1023 hPa 0,0 l/m N 0,0 km/h (0 Bft)
19.11.2006 02:00 2,0 C 100 % 1023 hPa 0,0 l/m N 0,0 km/h (0 Bft)
19.11.2006 03:00 1,6 C 100 % 1023 hPa 0,0 l/m N 0,0 km/h (0 Bft)
19.11.2006 04:00 0,9 C 100 % 1022 hPa 0,0 l/m N 0,0 km/h (0 Bft)
19.11.2006 05:00 0,4 C 100 % 1022 hPa 0,0 l/m N 0,0 km/h (0 Bft)
19.11.2006 06:00 0,4 C 100 % 1022 hPa 0,0 l/m N 0,0 km/h (0 Bft)
19.11.2006 07:00 0,2 C 100 % 1022 hPa 0,0 l/m N 0,0 km/h (0 Bft)
19.11.2006 08:00 0,6 C 100 % 1022 hPa 0,0 l/m N 0,0 km/h (0 Bft)
19.11.2006 09:00 2,3 C 100 % 1022 hPa 0,0 l/m N 0,0 km/h (0 Bft)
19.11.2006 10:00 5,2 C 100 % 1022 hPa 0,0 l/m S 4,1 km/h (1 Bft)
19.11.2006 11:00 7,2 C 100 % 1021 hPa 0,0 l/m S-SW 5,3 km/h (1 Bft)
19.11.2006 12:00 7,9 C 96 % 1021 hPa 0,0 l/m S-SO 0,2 km/h (0 Bft)
19.11.2006 13:00 8,8 C 93 % 1020 hPa 0,0 l/m S 2,1 km/h (1 Bft)
19.11.2006 14:00 9,5 C 91 % 1019 hPa 0,0 l/m S 7,6 km/h (2 Bft)
19.11.2006 15:00 10,7 C 63 % 1019 hPa 0,0 l/m SW 10,1 km/h (2 Bft)
19.11.2006 16:00 10,5 C 68 % 1019 hPa 0,0 l/m W-SW 10,0 km/h (2 Bft)
19.11.2006 17:00 9,3 C 80 % 1019 hPa 0,0 l/m S-SW 9,3 km/h (2 Bft)
19.11.2006 18:00 8,9 C 81 % 1019 hPa 0,0 l/m S-SW 9,5 km/h (2 Bft)
19.11.2006 19:00 8,0 C 90 % 1020 hPa 0,0 l/m S-SW 9,5 km/h (2 Bft)
19.11.2006 20:00 7,8 C 94 % 1020 hPa 0,0 l/m S-SW 7,2 km/h (2 Bft)
19.11.2006 21:00 7,8 C 96 % 1021 hPa 0,0 l/m N 0,0 km/h (0 Bft)
19.11.2006 22:00 7,1 C 91 % 1022 hPa 4,0 l/m W-SW 3,7 km/h (1 Bft)
19.11.2006 23:00 6,1 C 98 % 1022 hPa 0,0 l/m SW 6,3 km/h (2 Bft)
Min-Datum _ 19.11.06 16.11.06 16.11.06 - - 13.11.06
_ Min-Zeit 07:41 14:20 15:34 - - 01:10
Minimum _ 0,1 C 50 % 1011 hPa - - 0,0 km/h (0 Bft)
Max-Datum _ 16.11.06 14.11.06 18.11.06 19.11.06 - 13.11.06
_ Max-Zeit 14:21 07:20 20:19 22:17 - 13:45
Maximum _ 17,6 C 100 % 1023 hPa 4,0 l/m - 36,7 km/h
W-SW (5 Bft)
Durchschnitt _ 7,9 C 91 % 1018 hPa #5,0 l/m S-SW 4,6 km/h (1 Bft)

Durchschnitt Minimum Temp.7,5 C
Durchschnitt Maximum Temp.8,2 C